sensor_id;sensor_type;location;lat;lon;timestamp;pressure;altitude;pressure_sealevel;temperature;humidity
40205;BME280;26963;42.666;23.366;2023-04-07T00:02:03;94642.03;;;5.59;38.87
40205;BME280;26963;42.666;23.366;2023-04-07T00:04:28;94655.28;;;5.69;38.86
40205;BME280;26963;42.666;23.366;2023-04-07T00:06:54;94651.88;;;5.64;38.65
40205;BME280;26963;42.666;23.366;2023-04-07T00:09:19;94657.44;;;5.72;38.57
40205;BME280;26963;42.666;23.366;2023-04-07T00:11:45;94656.09;;;5.65;38.01
40205;BME280;26963;42.666;23.366;2023-04-07T00:14:13;94563.03;;;4.99;38.06
40205;BME280;26963;42.666;23.366;2023-04-07T00:16:38;94661.16;;;5.61;38.27
40205;BME280;26963;42.666;23.366;2023-04-07T00:19:04;94608.63;;;5.27;38.59
40205;BME280;26963;42.666;23.366;2023-04-07T00:21:30;94640.47;;;5.48;38.28
40205;BME280;26963;42.666;23.366;2023-04-07T00:23:55;94623.50;;;5.33;38.20
40205;BME280;26963;42.666;23.366;2023-04-07T00:26:21;94643.66;;;5.50;38.08
40205;BME280;26963;42.666;23.366;2023-04-07T00:28:46;94648.97;;;5.50;38.38
40205;BME280;26963;42.666;23.366;2023-04-07T00:31:12;94607.56;;;5.23;37.94
40205;BME280;26963;42.666;23.366;2023-04-07T00:33:38;94611.28;;;5.27;37.81
40205;BME280;26963;42.666;23.366;2023-04-07T00:36:03;94588.50;;;5.16;37.78
40205;BME280;26963;42.666;23.366;2023-04-07T00:38:29;94658.47;;;5.56;37.73
40205;BME280;26963;42.666;23.366;2023-04-07T00:40:58;94653.72;;;5.53;37.88
40205;BME280;26963;42.666;23.366;2023-04-07T00:43:24;94644.16;;;5.47;37.76
40205;BME280;26963;42.666;23.366;2023-04-07T00:45:51;94660.63;;;5.44;40.26
40205;BME280;26963;42.666;23.366;2023-04-07T00:48:17;94565.63;;;4.48;43.86
40205;BME280;26963;42.666;23.366;2023-04-07T00:50:44;94665.84;;;4.66;45.06
40205;BME280;26963;42.666;23.366;2023-04-07T00:53:11;94661.47;;;4.34;45.81
40205;BME280;26963;42.666;23.366;2023-04-07T00:55:36;94658.16;;;4.01;47.39
40205;BME280;26963;42.666;23.366;2023-04-07T00:58:02;94665.50;;;3.89;48.10
40205;BME280;26963;42.666;23.366;2023-04-07T01:00:32;94668.88;;;3.74;49.02
40205;BME280;26963;42.666;23.366;2023-04-07T01:03:10;94618.28;;;3.28;49.23
40205;BME280;26963;42.666;23.366;2023-04-07T01:05:47;94636.59;;;3.39;49.31
40205;BME280;26963;42.666;23.366;2023-04-07T01:11:06;94661.44;;;3.33;50.15
40205;BME280;26963;42.666;23.366;2023-04-07T01:13:42;94646.81;;;3.25;50.22
40205;BME280;26963;42.666;23.366;2023-04-07T01:16:16;94654.59;;;3.37;50.16
40205;BME280;26963;42.666;23.366;2023-04-07T01:18:45;94631.22;;;3.24;49.80
40205;BME280;26963;42.666;23.366;2023-04-07T01:21:17;94577.06;;;2.94;49.79
40205;BME280;26963;42.666;23.366;2023-04-07T01:26:36;94642.34;;;3.26;50.15
40205;BME280;26963;42.666;23.366;2023-04-07T01:29:36;94645.50;;;3.28;50.52
40205;BME280;26963;42.666;23.366;2023-04-07T01:32:05;94651.88;;;3.27;50.32
40205;BME280;26963;42.666;23.366;2023-04-07T01:34:33;94646.50;;;3.17;50.72
40205;BME280;26963;42.666;23.366;2023-04-07T01:37:01;94622.81;;;3.00;51.42
40205;BME280;26963;42.666;23.366;2023-04-07T01:39:29;94628.31;;;2.93;51.64
40205;BME280;26963;42.666;23.366;2023-04-07T01:42:00;94629.31;;;2.87;51.67
40205;BME280;26963;42.666;23.366;2023-04-07T01:44:30;94591.00;;;2.57;51.77
40205;BME280;26963;42.666;23.366;2023-04-07T01:47:00;94634.91;;;2.90;51.62
40205;BME280;26963;42.666;23.366;2023-04-07T01:49:30;94630.78;;;3.05;51.91
40205;BME280;26963;42.666;23.366;2023-04-07T01:51:56;94623.81;;;2.93;51.74
40205;BME280;26963;42.666;23.366;2023-04-07T01:54:25;94414.59;;;1.61;51.96
40205;BME280;26963;42.666;23.366;2023-04-07T01:56:51;94611.56;;;2.82;52.49
40205;BME280;26963;42.666;23.366;2023-04-07T01:59:17;94570.91;;;2.56;52.44
40205;BME280;26963;42.666;23.366;2023-04-07T02:01:42;94639.59;;;3.10;52.32
40205;BME280;26963;42.666;23.366;2023-04-07T02:06:51;94621.97;;;2.89;52.26
40205;BME280;26963;42.666;23.366;2023-04-07T02:09:19;94614.16;;;2.77;52.70
40205;BME280;26963;42.666;23.366;2023-04-07T02:11:46;94641.28;;;2.94;52.35
40205;BME280;26963;42.666;23.366;2023-04-07T02:14:14;94642.63;;;2.97;52.65
40205;BME280;26963;42.666;23.366;2023-04-07T02:16:42;94609.09;;;2.70;53.32
40205;BME280;26963;42.666;23.366;2023-04-07T02:19:08;94611.75;;;2.70;53.40
40205;BME280;26963;42.666;23.366;2023-04-07T02:21:34;94622.13;;;2.82;53.33
40205;BME280;26963;42.666;23.366;2023-04-07T02:24:01;94441.34;;;1.75;52.12
40205;BME280;26963;42.666;23.366;2023-04-07T02:26:34;94593.63;;;2.84;52.11
40205;BME280;26963;42.666;23.366;2023-04-07T02:29:01;94638.66;;;3.27;51.88
40205;BME280;26963;42.666;23.366;2023-04-07T02:31:30;94616.41;;;3.28;51.04
40205;BME280;26963;42.666;23.366;2023-04-07T02:33:56;94626.84;;;3.40;50.71
40205;BME280;26963;42.666;23.366;2023-04-07T02:36:21;94608.25;;;3.30;50.79
40205;BME280;26963;42.666;23.366;2023-04-07T02:38:47;94539.47;;;2.87;51.22
40205;BME280;26963;42.666;23.366;2023-04-07T02:41:13;94612.06;;;3.12;51.42
40205;BME280;26963;42.666;23.366;2023-04-07T02:43:39;94624.75;;;3.09;51.83
40205;BME280;26963;42.666;23.366;2023-04-07T02:46:04;94569.47;;;2.70;52.12
40205;BME280;26963;42.666;23.366;2023-04-07T02:48:30;94551.47;;;2.67;51.83
40205;BME280;26963;42.666;23.366;2023-04-07T02:50:55;94629.38;;;3.24;51.25
40205;BME280;26963;42.666;23.366;2023-04-07T02:53:21;94604.03;;;2.96;51.38
40205;BME280;26963;42.666;23.366;2023-04-07T02:55:46;94442.97;;;1.76;51.68
40205;BME280;26963;42.666;23.366;2023-04-07T02:58:12;94658.44;;;3.19;51.94
40205;BME280;26963;42.666;23.366;2023-04-07T03:00:37;94581.28;;;2.63;51.86
40205;BME280;26963;42.666;23.366;2023-04-07T03:03:03;94633.09;;;2.96;51.89
40205;BME280;26963;42.666;23.366;2023-04-07T03:05:28;94639.97;;;2.97;51.89
40205;BME280;26963;42.666;23.366;2023-04-07T03:07:54;94653.28;;;3.07;52.16
40205;BME280;26963;42.666;23.366;2023-04-07T03:10:20;94644.88;;;3.10;51.96
40205;BME280;26963;42.666;23.366;2023-04-07T03:12:45;94647.09;;;3.29;51.79
40205;BME280;26963;42.666;23.366;2023-04-07T03:15:11;94627.25;;;3.26;50.92
40205;BME280;26963;42.666;23.366;2023-04-07T03:17:36;94647.06;;;3.56;50.19
40205;BME280;26963;42.666;23.366;2023-04-07T03:20:02;94631.47;;;3.60;50.05
40205;BME280;26963;42.666;23.366;2023-04-07T03:22:30;94636.09;;;3.80;49.60
40205;BME280;26963;42.666;23.366;2023-04-07T03:24:56;94614.69;;;3.87;49.69
40205;BME280;26963;42.666;23.366;2023-04-07T03:27:21;94634.34;;;4.06;48.97
40205;BME280;26963;42.666;23.366;2023-04-07T03:29:47;94645.78;;;4.17;48.23
40205;BME280;26963;42.666;23.366;2023-04-07T03:32:12;94571.75;;;3.80;48.53
40205;BME280;26963;42.666;23.366;2023-04-07T03:34:38;94533.56;;;3.55;48.37
40205;BME280;26963;42.666;23.366;2023-04-07T03:37:03;94627.28;;;4.22;48.25
40205;BME280;26963;42.666;23.366;2023-04-07T03:39:29;94621.72;;;4.29;47.37
40205;BME280;26963;42.666;23.366;2023-04-07T03:41:56;94614.81;;;4.23;47.67
40205;BME280;26963;42.666;23.366;2023-04-07T03:44:22;94600.78;;;4.17;44.87
40205;BME280;26963;42.666;23.366;2023-04-07T03:46:47;94618.56;;;4.27;44.72
40205;BME280;26963;42.666;23.366;2023-04-07T03:49:14;94618.06;;;4.40;43.85
40205;BME280;26963;42.666;23.366;2023-04-07T03:51:40;94518.06;;;3.79;43.05
40205;BME280;26963;42.666;23.366;2023-04-07T03:54:06;94600.84;;;4.43;42.86
40205;BME280;26963;42.666;23.366;2023-04-07T03:56:31;94623.66;;;4.60;42.81
40205;BME280;26963;42.666;23.366;2023-04-07T03:59:00;94571.13;;;4.25;41.93
40205;BME280;26963;42.666;23.366;2023-04-07T04:01:25;94633.50;;;4.74;43.01
40205;BME280;26963;42.666;23.366;2023-04-07T04:03:51;94647.25;;;4.56;47.29
40205;BME280;26963;42.666;23.366;2023-04-07T04:06:16;94578.72;;;4.01;47.60
40205;BME280;26963;42.666;23.366;2023-04-07T04:08:42;94632.25;;;4.08;48.50
40205;BME280;26963;42.666;23.366;2023-04-07T04:11:07;94655.44;;;3.86;49.14
40205;BME280;26963;42.666;23.366;2023-04-07T04:13:33;94639.31;;;3.45;50.40
40205;BME280;26963;42.666;23.366;2023-04-07T04:15:58;94661.00;;;3.47;50.84
40205;BME280;26963;42.666;23.366;2023-04-07T04:18:24;94521.59;;;2.34;50.96
40205;BME280;26963;42.666;23.366;2023-04-07T04:20:49;94642.75;;;3.13;51.31
40205;BME280;26963;42.666;23.366;2023-04-07T04:23:15;94600.81;;;2.89;50.91
40205;BME280;26963;42.666;23.366;2023-04-07T04:25:41;94640.63;;;3.09;50.98
40205;BME280;26963;42.666;23.366;2023-04-07T04:28:06;94490.16;;;2.00;51.27
40205;BME280;26963;42.666;23.366;2023-04-07T04:30:32;94672.69;;;3.18;51.43
40205;BME280;26963;42.666;23.366;2023-04-07T04:33:00;94658.03;;;3.05;52.10
40205;BME280;26963;42.666;23.366;2023-04-07T04:35:30;94613.69;;;2.80;51.40
40205;BME280;26963;42.666;23.366;2023-04-07T04:37:55;94632.69;;;3.09;50.85
40205;BME280;26963;42.666;23.366;2023-04-07T04:40:21;94599.19;;;2.83;50.71
40205;BME280;26963;42.666;23.366;2023-04-07T04:42:46;94660.28;;;3.24;50.67
40205;BME280;26963;42.666;23.366;2023-04-07T04:45:12;94693.00;;;3.45;50.37
40205;BME280;26963;42.666;23.366;2023-04-07T04:47:37;94646.03;;;3.25;50.58
40205;BME280;26963;42.666;23.366;2023-04-07T04:50:05;94692.66;;;3.69;50.33
40205;BME280;26963;42.666;23.366;2023-04-07T04:52:31;94499.56;;;2.51;49.50
40205;BME280;26963;42.666;23.366;2023-04-07T04:54:56;94650.34;;;3.74;48.27
40205;BME280;26963;42.666;23.366;2023-04-07T04:57:25;94598.06;;;3.49;47.79
40205;BME280;26963;42.666;23.366;2023-04-07T04:59:51;94675.50;;;4.30;47.14
40205;BME280;26963;42.666;23.366;2023-04-07T05:02:17;94677.38;;;4.34;47.53
40205;BME280;26963;42.666;23.366;2023-04-07T05:04:42;94697.03;;;4.49;47.12
40205;BME280;26963;42.666;23.366;2023-04-07T05:07:08;94622.72;;;4.13;46.40
40205;BME280;26963;42.666;23.366;2023-04-07T05:09:33;94628.63;;;4.30;45.56
40205;BME280;26963;42.666;23.366;2023-04-07T05:11:59;94664.50;;;4.64;46.21
40205;BME280;26963;42.666;23.366;2023-04-07T05:14:26;94695.06;;;4.97;45.77
40205;BME280;26963;42.666;23.366;2023-04-07T05:16:51;94639.84;;;4.58;45.63
40205;BME280;26963;42.666;23.366;2023-04-07T05:19:18;94704.66;;;5.24;45.16
40205;BME280;26963;42.666;23.366;2023-04-07T05:21:44;94726.41;;;5.31;44.85
40205;BME280;26963;42.666;23.366;2023-04-07T05:24:09;94676.50;;;5.13;44.54
40205;BME280;26963;42.666;23.366;2023-04-07T05:26:35;94673.34;;;5.00;44.83
40205;BME280;26963;42.666;23.366;2023-04-07T05:29:00;94683.41;;;4.93;45.49
40205;BME280;26963;42.666;23.366;2023-04-07T05:31:26;94623.34;;;4.40;45.51
40205;BME280;26963;42.666;23.366;2023-04-07T05:33:51;94710.13;;;4.81;46.10
40205;BME280;26963;42.666;23.366;2023-04-07T05:36:18;94671.69;;;4.79;45.89
40205;BME280;26963;42.666;23.366;2023-04-07T05:38:43;94718.44;;;5.16;45.98
40205;BME280;26963;42.666;23.366;2023-04-07T05:41:09;94708.34;;;5.23;45.57
40205;BME280;26963;42.666;23.366;2023-04-07T05:43:34;94712.09;;;5.58;45.13
40205;BME280;26963;42.666;23.366;2023-04-07T05:46:00;94683.69;;;5.48;44.79
40205;BME280;26963;42.666;23.366;2023-04-07T05:48:25;94573.09;;;4.66;44.46
40205;BME280;26963;42.666;23.366;2023-04-07T05:50:51;94702.03;;;5.55;44.32
40205;BME280;26963;42.666;23.366;2023-04-07T05:53:16;94674.41;;;5.46;44.60
40205;BME280;26963;42.666;23.366;2023-04-07T05:55:42;94713.16;;;5.78;44.31
40205;BME280;26963;42.666;23.366;2023-04-07T05:58:08;94711.81;;;5.91;43.56
40205;BME280;26963;42.666;23.366;2023-04-07T06:00:33;94684.50;;;5.59;43.26
40205;BME280;26963;42.666;23.366;2023-04-07T06:02:59;94705.19;;;5.52;43.76
40205;BME280;26963;42.666;23.366;2023-04-07T06:05:26;94666.47;;;5.25;44.30
40205;BME280;26963;42.666;23.366;2023-04-07T06:07:51;94715.81;;;5.57;44.35
40205;BME280;26963;42.666;23.366;2023-04-07T06:10:17;94633.31;;;5.17;43.84
40205;BME280;26963;42.666;23.366;2023-04-07T06:12:42;94717.66;;;5.67;43.68
40205;BME280;26963;42.666;23.366;2023-04-07T06:15:08;94672.28;;;5.48;43.85
40205;BME280;26963;42.666;23.366;2023-04-07T06:17:34;94690.84;;;5.63;43.74
40205;BME280;26963;42.666;23.366;2023-04-07T06:19:59;94705.69;;;5.90;43.38
40205;BME280;26963;42.666;23.366;2023-04-07T06:22:25;94702.81;;;5.86;43.60
40205;BME280;26963;42.666;23.366;2023-04-07T06:24:50;94711.28;;;5.94;42.56
40205;BME280;26963;42.666;23.366;2023-04-07T06:27:17;94679.44;;;5.78;42.57
40205;BME280;26963;42.666;23.366;2023-04-07T06:29:42;94688.72;;;6.01;42.63
40205;BME280;26963;42.666;23.366;2023-04-07T06:32:08;94699.81;;;6.29;42.61
40205;BME280;26963;42.666;23.366;2023-04-07T06:34:33;94646.75;;;6.03;41.95
40205;BME280;26963;42.666;23.366;2023-04-07T06:36:59;94643.53;;;7.51;39.45
40205;BME280;26963;42.666;23.366;2023-04-07T06:39:26;94707.03;;;9.71;35.46
40205;BME280;26963;42.666;23.366;2023-04-07T06:41:51;94695.22;;;11.31;31.59
40205;BME280;26963;42.666;23.366;2023-04-07T06:44:17;94682.91;;;12.52;29.45
40205;BME280;26963;42.666;23.366;2023-04-07T06:46:42;94632.03;;;13.13;28.29
40205;BME280;26963;42.666;23.366;2023-04-07T06:49:11;94691.28;;;14.05;27.58
40205;BME280;26963;42.666;23.366;2023-04-07T06:51:37;94654.06;;;14.54;26.33
40205;BME280;26963;42.666;23.366;2023-04-07T06:54:02;94644.13;;;12.67;28.14
40205;BME280;26963;42.666;23.366;2023-04-07T06:56:29;94611.78;;;11.91;29.53
40205;BME280;26963;42.666;23.366;2023-04-07T06:58:55;94689.22;;;13.05;28.04
40205;BME280;26963;42.666;23.366;2023-04-07T07:01:20;94629.69;;;13.38;27.51
40205;BME280;26963;42.666;23.366;2023-04-07T07:03:46;94667.50;;;15.23;26.49
40205;BME280;26963;42.666;23.366;2023-04-07T07:06:12;94642.31;;;17.02;23.43
40205;BME280;26963;42.666;23.366;2023-04-07T07:08:37;94647.25;;;17.12;22.75
40205;BME280;26963;42.666;23.366;2023-04-07T07:11:03;94665.63;;;18.81;21.81
40205;BME280;26963;42.666;23.366;2023-04-07T07:13:28;94643.97;;;19.32;20.67
40205;BME280;26963;42.666;23.366;2023-04-07T07:15:54;94666.28;;;18.90;20.37
40205;BME280;26963;42.666;23.366;2023-04-07T07:18:20;94696.22;;;19.13;21.10
40205;BME280;26963;42.666;23.366;2023-04-07T07:20:45;94674.13;;;20.06;20.68
40205;BME280;26963;42.666;23.366;2023-04-07T07:23:11;94694.69;;;21.46;18.42
40205;BME280;26963;42.666;23.366;2023-04-07T07:25:37;94657.84;;;20.72;18.23
40205;BME280;26963;42.666;23.366;2023-04-07T07:28:02;94689.69;;;17.77;21.17
40205;BME280;26963;42.666;23.366;2023-04-07T07:30:28;94714.16;;;17.16;22.48
40205;BME280;26963;42.666;23.366;2023-04-07T07:32:54;94631.16;;;19.13;21.00
40205;BME280;26963;42.666;23.366;2023-04-07T07:35:21;94627.63;;;18.93;19.08
40205;BME280;26963;42.666;23.366;2023-04-07T07:37:47;94675.94;;;19.43;18.58
40205;BME280;26963;42.666;23.366;2023-04-07T07:40:13;94678.75;;;18.02;19.24
40205;BME280;26963;42.666;23.366;2023-04-07T07:42:39;94710.50;;;17.36;20.18
40205;BME280;26963;42.666;23.366;2023-04-07T07:45:05;94708.03;;;16.82;20.48
40205;BME280;26963;42.666;23.366;2023-04-07T07:47:31;94718.56;;;16.37;21.45
40205;BME280;26963;42.666;23.366;2023-04-07T07:52:41;94715.75;;;15.58;21.77
40205;BME280;26963;42.666;23.366;2023-04-07T07:55:07;94592.41;;;14.70;22.37
40205;BME280;26963;42.666;23.366;2023-04-07T07:57:33;94693.88;;;16.85;21.51
40205;BME280;26963;42.666;23.366;2023-04-07T07:59:59;94713.69;;;17.79;20.13
40205;BME280;26963;42.666;23.366;2023-04-07T08:02:25;94660.22;;;18.81;20.02
40205;BME280;26963;42.666;23.366;2023-04-07T08:04:58;94696.16;;;18.46;18.95
40205;BME280;26963;42.666;23.366;2023-04-07T08:07:24;94648.06;;;18.11;18.82
40205;BME280;26963;42.666;23.366;2023-04-07T08:09:50;94679.50;;;17.87;19.58
40205;BME280;26963;42.666;23.366;2023-04-07T08:12:16;94662.78;;;17.28;19.81
40205;BME280;26963;42.666;23.366;2023-04-07T08:14:41;94703.09;;;16.84;20.38
40205;BME280;26963;42.666;23.366;2023-04-07T08:17:07;94721.75;;;16.64;20.83
40205;BME280;26963;42.666;23.366;2023-04-07T08:19:32;94679.19;;;16.36;20.80
40205;BME280;26963;42.666;23.366;2023-04-07T08:21:58;94700.84;;;16.61;20.33
40205;BME280;26963;42.666;23.366;2023-04-07T08:24:23;94714.38;;;17.23;20.37
40205;BME280;26963;42.666;23.366;2023-04-07T08:26:49;94711.91;;;17.05;20.62
40205;BME280;26963;42.666;23.366;2023-04-07T08:29:14;94717.97;;;17.27;20.16
40205;BME280;26963;42.666;23.366;2023-04-07T08:31:40;94710.31;;;17.29;20.00
40205;BME280;26963;42.666;23.366;2023-04-07T08:34:24;94663.66;;;17.32;20.02
40205;BME280;26963;42.666;23.366;2023-04-07T08:36:50;94689.19;;;17.88;19.82
40205;BME280;26963;42.666;23.366;2023-04-07T08:39:16;94692.63;;;18.29;19.58
40205;BME280;26963;42.666;23.366;2023-04-07T08:41:42;94641.03;;;17.65;19.10
40205;BME280;26963;42.666;23.366;2023-04-07T08:44:09;94686.09;;;17.73;19.26
40205;BME280;26963;42.666;23.366;2023-04-07T08:46:38;94709.97;;;17.18;20.12
40205;BME280;26963;42.666;23.366;2023-04-07T08:49:08;94539.81;;;15.48;20.36
40205;BME280;26963;42.666;23.366;2023-04-07T08:51:36;94721.03;;;16.30;21.05
40205;BME280;26963;42.666;23.366;2023-04-07T08:56:32;94696.94;;;16.25;20.68
40205;BME280;26963;42.666;23.366;2023-04-07T08:59:00;94673.00;;;15.69;20.82
40205;BME280;26963;42.666;23.366;2023-04-07T09:01:26;94716.53;;;15.79;21.25
40205;BME280;26963;42.666;23.366;2023-04-07T09:03:53;94720.25;;;15.54;21.39
40205;BME280;26963;42.666;23.366;2023-04-07T09:06:18;94707.47;;;15.21;21.95
40205;BME280;26963;42.666;23.366;2023-04-07T09:08:45;94627.94;;;14.16;22.46
40205;BME280;26963;42.666;23.366;2023-04-07T09:11:11;94695.00;;;14.30;22.52
40205;BME280;26963;42.666;23.366;2023-04-07T09:13:36;94717.19;;;14.74;23.33
40205;BME280;26963;42.666;23.366;2023-04-07T09:16:02;94720.84;;;15.08;23.44
40205;BME280;26963;42.666;23.366;2023-04-07T09:18:30;94679.59;;;15.16;22.71
40205;BME280;26963;42.666;23.366;2023-04-07T09:21:01;94699.34;;;15.51;22.63
40205;BME280;26963;42.666;23.366;2023-04-07T09:23:36;94694.19;;;15.58;21.20
40205;BME280;26963;42.666;23.366;2023-04-07T09:26:20;94712.06;;;15.41;21.56
40205;BME280;26963;42.666;23.366;2023-04-07T09:28:56;94693.50;;;14.97;22.03
40205;BME280;26963;42.666;23.366;2023-04-07T09:31:48;94700.41;;;14.77;22.53
40205;BME280;26963;42.666;23.366;2023-04-07T09:34:32;94673.19;;;14.31;23.18
40205;BME280;26963;42.666;23.366;2023-04-07T09:36:58;94710.41;;;14.21;23.37
40205;BME280;26963;42.666;23.366;2023-04-07T09:39:25;94712.78;;;14.13;24.41
40205;BME280;26963;42.666;23.366;2023-04-07T09:41:50;94543.53;;;13.26;24.85
40205;BME280;26963;42.666;23.366;2023-04-07T09:44:25;94721.69;;;14.52;23.87
40205;BME280;26963;42.666;23.366;2023-04-07T09:46:53;94729.56;;;14.75;23.45
40205;BME280;26963;42.666;23.366;2023-04-07T09:49:20;94697.91;;;14.72;23.42
40205;BME280;26963;42.666;23.366;2023-04-07T09:51:55;94715.47;;;14.78;22.77
40205;BME280;26963;42.666;23.366;2023-04-07T09:54:35;94651.84;;;14.17;23.61
40205;BME280;26963;42.666;23.366;2023-04-07T09:57:09;94718.88;;;14.40;23.26
40205;BME280;26963;42.666;23.366;2023-04-07T09:59:37;94733.50;;;14.22;23.71
40205;BME280;26963;42.666;23.366;2023-04-07T10:02:06;94699.72;;;13.50;24.17
40205;BME280;26963;42.666;23.366;2023-04-07T10:04:32;94707.91;;;13.80;24.35
40205;BME280;26963;42.666;23.366;2023-04-07T10:06:58;94717.91;;;13.89;24.50
40205;BME280;26963;42.666;23.366;2023-04-07T10:09:33;94703.19;;;13.95;24.49
40205;BME280;26963;42.666;23.366;2023-04-07T10:11:58;94680.41;;;13.83;24.31
40205;BME280;26963;42.666;23.366;2023-04-07T10:14:29;94713.13;;;13.77;24.48
40205;BME280;26963;42.666;23.366;2023-04-07T10:16:56;94685.66;;;13.53;24.87
40205;BME280;26963;42.666;23.366;2023-04-07T10:19:22;94708.25;;;13.70;25.04
40205;BME280;26963;42.666;23.366;2023-04-07T10:21:50;94707.47;;;13.69;24.42
40205;BME280;26963;42.666;23.366;2023-04-07T10:27:28;94732.91;;;13.37;25.57
40205;BME280;26963;42.666;23.366;2023-04-07T10:29:55;94685.44;;;13.06;27.87
40205;BME280;26963;42.666;23.366;2023-04-07T10:32:25;94528.69;;;11.91;26.90
40205;BME280;26963;42.666;23.366;2023-04-07T10:37:20;94680.19;;;12.83;26.93
40205;BME280;26963;42.666;23.366;2023-04-07T10:39:51;94732.84;;;13.19;26.68
40205;BME280;26963;42.666;23.366;2023-04-07T10:45:08;94726.22;;;13.26;25.90
40205;BME280;26963;42.666;23.366;2023-04-07T10:47:34;94742.41;;;13.43;26.73
40205;BME280;26963;42.666;23.366;2023-04-07T10:50:21;94743.81;;;13.41;27.30
40205;BME280;26963;42.666;23.366;2023-04-07T10:52:48;94685.94;;;12.59;27.94
40205;BME280;26963;42.666;23.366;2023-04-07T10:55:39;94742.22;;;12.42;29.11
40205;BME280;26963;42.666;23.366;2023-04-07T11:01:15;94677.34;;;11.85;29.02
40205;BME280;26963;42.666;23.366;2023-04-07T11:03:29;94754.09;;;12.49;29.41
40205;BME280;26963;42.666;23.366;2023-04-07T11:06:21;94734.34;;;12.45;28.75
40205;BME280;26963;42.666;23.366;2023-04-07T11:08:48;94757.25;;;12.51;28.79
40205;BME280;26963;42.666;23.366;2023-04-07T11:11:34;94724.34;;;12.37;29.21
40205;BME280;26963;42.666;23.366;2023-04-07T11:14:01;94764.97;;;12.84;29.20
40205;BME280;26963;42.666;23.366;2023-04-07T11:16:38;94718.50;;;12.75;28.91
40205;BME280;26963;42.666;23.366;2023-04-07T11:19:04;94699.88;;;12.70;29.04
40205;BME280;26963;42.666;23.366;2023-04-07T11:21:30;94744.53;;;13.06;27.73
40205;BME280;26963;42.666;23.366;2023-04-07T11:23:55;94685.00;;;12.64;27.84
40205;BME280;26963;42.666;23.366;2023-04-07T11:26:21;94755.22;;;12.88;28.36
40205;BME280;26963;42.666;23.366;2023-04-07T11:28:49;94748.41;;;12.82;28.21
40205;BME280;26963;42.666;23.366;2023-04-07T11:31:25;94711.44;;;12.39;28.63
40205;BME280;26963;42.666;23.366;2023-04-07T11:34:04;94726.50;;;12.57;28.52
40205;BME280;26963;42.666;23.366;2023-04-07T11:36:40;94677.84;;;12.42;29.14
40205;BME280;26963;42.666;23.366;2023-04-07T11:39:17;94745.78;;;13.00;28.65
40205;BME280;26963;42.666;23.366;2023-04-07T11:41:46;94761.09;;;13.08;28.47
40205;BME280;26963;42.666;23.366;2023-04-07T11:44:13;94768.88;;;13.18;28.17
40205;BME280;26963;42.666;23.366;2023-04-07T11:47:00;94760.81;;;13.18;28.26
40205;BME280;26963;42.666;23.366;2023-04-07T11:49:29;94701.63;;;12.75;28.37
40205;BME280;26963;42.666;23.366;2023-04-07T11:52:14;94695.44;;;12.74;28.36
40205;BME280;26963;42.666;23.366;2023-04-07T11:54:46;94760.03;;;13.18;28.57
40205;BME280;26963;42.666;23.366;2023-04-07T11:57:13;94748.97;;;13.19;28.80
40205;BME280;26963;42.666;23.366;2023-04-07T11:59:39;94708.03;;;13.05;28.49
40205;BME280;26963;42.666;23.366;2023-04-07T12:02:05;94746.59;;;13.18;28.58
40205;BME280;26963;42.666;23.366;2023-04-07T12:04:32;94756.16;;;12.93;28.79
40205;BME280;26963;42.666;23.366;2023-04-07T12:07:08;94759.16;;;12.91;29.01
40205;BME280;26963;42.666;23.366;2023-04-07T12:09:34;94685.06;;;12.41;29.24
40205;BME280;26963;42.666;23.366;2023-04-07T12:12:02;94757.34;;;12.69;29.49
40205;BME280;26963;42.666;23.366;2023-04-07T12:14:30;94739.41;;;12.47;29.64
40205;BME280;26963;42.666;23.366;2023-04-07T12:16:55;94751.00;;;12.65;29.68
40205;BME280;26963;42.666;23.366;2023-04-07T12:19:25;94757.25;;;12.51;29.40
40205;BME280;26963;42.666;23.366;2023-04-07T12:22:00;94754.38;;;12.39;29.36
40205;BME280;26963;42.666;23.366;2023-04-07T12:24:26;94752.97;;;12.42;29.69
40205;BME280;26963;42.666;23.366;2023-04-07T12:26:51;94753.25;;;12.40;30.25
40205;BME280;26963;42.666;23.366;2023-04-07T12:29:17;94755.13;;;12.08;30.30
40205;BME280;26963;42.666;23.366;2023-04-07T12:31:44;94752.56;;;12.03;30.73
40205;BME280;26963;42.666;23.366;2023-04-07T12:34:10;94766.81;;;12.12;30.94
40205;BME280;26963;42.666;23.366;2023-04-07T12:36:35;94749.81;;;12.17;30.57
40205;BME280;26963;42.666;23.366;2023-04-07T12:39:01;94764.63;;;12.14;30.60
40205;BME280;26963;42.666;23.366;2023-04-07T12:41:26;94761.75;;;12.11;30.32
40205;BME280;26963;42.666;23.366;2023-04-07T12:43:55;94758.41;;;12.28;31.13
40205;BME280;26963;42.666;23.366;2023-04-07T12:46:21;94747.88;;;12.40;30.67
40205;BME280;26963;42.666;23.366;2023-04-07T12:48:46;94737.03;;;12.45;30.27
40205;BME280;26963;42.666;23.366;2023-04-07T12:51:12;94756.72;;;12.72;30.37
40205;BME280;26963;42.666;23.366;2023-04-07T12:53:38;94754.50;;;12.74;29.93
40205;BME280;26963;42.666;23.366;2023-04-07T12:56:03;94752.94;;;12.73;29.78
40205;BME280;26963;42.666;23.366;2023-04-07T12:58:29;94755.13;;;12.71;30.07
40205;BME280;26963;42.666;23.366;2023-04-07T13:00:55;94758.31;;;12.73;29.91
40205;BME280;26963;42.666;23.366;2023-04-07T13:03:21;94704.84;;;12.45;30.34
40205;BME280;26963;42.666;23.366;2023-04-07T13:05:46;94768.00;;;12.92;30.13
40205;BME280;26963;42.666;23.366;2023-04-07T13:08:12;94741.75;;;12.80;29.82
40205;BME280;26963;42.666;23.366;2023-04-07T13:10:38;94679.53;;;12.29;29.49
40205;BME280;26963;42.666;23.366;2023-04-07T13:13:03;94768.09;;;12.78;29.75
40205;BME280;26963;42.666;23.366;2023-04-07T13:15:29;94762.38;;;12.62;29.72
40205;BME280;26963;42.666;23.366;2023-04-07T13:17:55;94698.34;;;12.06;30.13
40205;BME280;26963;42.666;23.366;2023-04-07T13:20:20;94768.88;;;12.38;30.22
40205;BME280;26963;42.666;23.366;2023-04-07T13:22:46;94758.31;;;12.42;30.43